Theologos P . — SZNB — position and weather

sailwx.info

Track history (hours):
 
Tides and Currents Weather Stations Pressure Air Temp Water Temp Dewpoint Dewpoint Depression Visibility Wind Speed Wind Dir Waves Ship Positions

Theologos P .

Last reported at 2016-Jun-29 09:14 UTC. Time now 2016-Jun-29 14:41 UTC.
Position N 38°01' E 024°01'.

Length 118 m; draft 4.5 m.

Type: Passenger vessel. MMSI: 240521000.

Date/timePositionNaut miles runAvg speedWind from/ knotsBaromVisibWave heightAir tempDewpointWater temp
2016-Jun-29 09:14N 38°01' E 024°01'1117.2
2016-Jun-29 08:34N 37°58' E 024°15'4816.1
2016-Jun-29 05:33N 37°33' E 025°07'1111.1
2016-Jun-29 04:33N 37°28' E 025°20'0 0.0
2016-Jun-29 03:34N 37°28' E 025°20'0 0.0
2016-Jun-29 02:33N 37°28' E 025°20'0 0.0
2016-Jun-29 01:33N 37°28' E 025°20'0 0.0
2016-Jun-29 00:33N 37°28' E 025°20'0 0.0
2016-Jun-28 23:33N 37°28' E 025°20'0 0.0
2016-Jun-28 22:34N 37°28' E 025°20'0 0.0
2016-Jun-28 21:33N 37°28' E 025°20'0 0.0
2016-Jun-28 20:34N 37°28' E 025°20'0 0.4
2016-Jun-28 19:33N 37°28' E 025°19'1111.2
2016-Jun-28 18:33N 37°33' E 025°07'3214.1
2016-Jun-28 16:19N 37°53' E 024°35'1417.9
2016-Jun-28 15:31N 37°57' E 024°18'14 2.3
2016-Jun-28 09:13N 38°01' E 024°01'1117.0
2016-Jun-28 08:33N 37°58' E 024°14'6014.7
2016-Jun-28 04:29N 37°28' E 025°20'0 0.0
2016-Jun-28 03:34N 37°28' E 025°20'0 0.0
2016-Jun-28 02:34N 37°28' E 025°20'0 0.0
2016-Jun-28 01:33N 37°28' E 025°20'0 0.0
2016-Jun-28 00:33N 37°28' E 025°20'0 0.0
2016-Jun-27 23:34N 37°28' E 025°20'0 0.0
2016-Jun-27 22:33N 37°28' E 025°20'0 0.0
2016-Jun-27 21:33N 37°28' E 025°20'0 0.0
2016-Jun-27 20:33N 37°28' E 025°20'0 0.0
2016-Jun-27 19:34N 37°28' E 025°20'9 9.2
2016-Jun-27 18:33N 37°32' E 025°09'1515.0
2016-Jun-27 17:33N 37°42' E 024°55'1412.5
2016-Jun-27 16:27N 37°52' E 024°44'1618.2
2016-Jun-27 15:33N 37°55' E 024°23'19 3.0
2016-Jun-27 09:18N 38°01' E 024°01'1317.8
2016-Jun-27 08:33N 37°57' E 024°17'3515.0
2016-Jun-27 06:15N 37°41' E 024°55'1318.9
2016-Jun-27 05:34N 37°32' E 025°08'1010.3
2016-Jun-27 04:33N 37°28' E 025°20'0 0.0
2016-Jun-27 03:33N 37°28' E 025°20'0 0.0
2016-Jun-27 02:33N 37°28' E 025°20'0 0.0
2016-Jun-27 01:33N 37°28' E 025°20'0 0.0
2016-Jun-27 00:33N 37°28' E 025°20'6 6.0
2016-Jun-26 23:33N 37°30' E 025°13'1414.1
2016-Jun-26 22:33N 37°37' E 024°57'3718.7
2016-Jun-26 20:33N 37°55' E 024°16'7 3.4
2016-Jun-26 18:33N 37°59' E 024°09'6 1.8
2016-Jun-26 15:12N 37°57' E 024°16'1218.9
2016-Jun-26 14:33N 38°01' E 024°01'2 1.6
2016-Jun-26 13:34N 38°01' E 024°03'4916.4
2016-Jun-26 10:33N 37°38' E 024°58'1111.1
2016-Jun-26 09:33N 37°32' E 025°09'9 8.9
2016-Jun-26 08:33N 37°28' E 025°20'0 0.0
2016-Jun-26 07:33N 37°28' E 025°20'0 0.0
2016-Jun-26 06:33N 37°28' E 025°20'0 0.0
2016-Jun-26 05:33N 37°28' E 025°20'0 0.0
2016-Jun-26 04:33N 37°28' E 025°20'0 0.0
2016-Jun-26 03:33N 37°28' E 025°20'0 0.0
2016-Jun-26 02:33N 37°28' E 025°20'0 0.0
2016-Jun-26 01:33N 37°28' E 025°20'0 0.0
2016-Jun-26 00:34N 37°28' E 025°20'0 0.0
2016-Jun-25 23:33N 37°28' E 025°20'0 0.0
2016-Jun-25 22:33N 37°28' E 025°20'0 0.0
2016-Jun-25 21:33N 37°28' E 025°20'0 0.0
2016-Jun-25 20:33N 37°28' E 025°20'0 0.0
2016-Jun-25 19:33N 37°28' E 025°20'9 9.3
2016-Jun-25 18:33N 37°32' E 025°09'1615.8
2016-Jun-25 17:31N 37°43' E 024°54'3214.6
2016-Jun-25 15:22N 37°57' E 024°18'12 6.8
2016-Jun-25 13:33N 38°01' E 024°03'2019.7
2016-Jun-25 12:33N 37°54' E 024°27'3015.1
2016-Jun-25 10:33N 37°38' E 024°59'1313.4
2016-Jun-25 09:33N 37°30' E 025°12'4 3.9
2016-Jun-25 08:33N 37°29' E 025°17'1313.3
2016-Jun-25 07:33N 37°36' E 025°03'4816.1
2016-Jun-25 04:33N 37°59' E 024°09'7 7.0
2016-Jun-25 03:32N 38°01' E 024°01'0 0.0
2016-Jun-25 02:33N 38°01' E 024°01'0 0.0
2016-Jun-25 01:33N 38°01' E 024°01'0 0.0
2016-Jun-25 00:33N 38°01' E 024°01'1514.8
2016-Jun-24 23:33N 37°55' E 024°17'1919.3
2016-Jun-24 22:33N 37°49' E 024°41'2020.0
2016-Jun-24 21:33N 37°36' E 024°60'1817.6
2016-Jun-24 20:33N 37°28' E 025°19'3 2.9
2016-Jun-24 19:34N 37°29' E 025°16'1010.2
2016-Jun-24 18:34N 37°34' E 025°05'1918.7
2016-Jun-24 17:32N 37°48' E 024°48'7 7.6
2016-Jun-24 16:33N 37°52' E 024°40'2018.1
2016-Jun-24 15:27N 37°57' E 024°16'13 2.1
2016-Jun-24 09:34N 38°01' E 024°01'1818.4
2016-Jun-24 08:33N 37°55' E 024°23'5313.2
2016-Jun-24 04:34N 37°28' E 025°20'0 0.0
2016-Jun-24 03:34N 37°28' E 025°20'0 0.0
2016-Jun-24 02:33N 37°28' E 025°20'0 0.0
2016-Jun-24 01:34N 37°28' E 025°20'0 0.0
2016-Jun-24 00:33N 37°28' E 025°20'0 0.0
2016-Jun-23 23:34N 37°28' E 025°20'0 0.0
2016-Jun-23 22:34N 37°28' E 025°20'0 0.0
2016-Jun-23 21:34N 37°28' E 025°20'0 0.0
2016-Jun-23 20:34N 37°28' E 025°20'0 0.0
2016-Jun-23 19:34N 37°28' E 025°20'9 9.2
2016-Jun-23 18:33N 37°32' E 025°09'1817.7
2016-Jun-23 17:33N 37°44' E 024°52'3113.9
2016-Jun-23 15:19N 37°57' E 024°17'13 2.2
2016-Jun-23 09:22N 38°01' E 024°01'1517.7
2016-Jun-23 08:32N 37°57' E 024°18'4515.1
2016-Jun-23 05:33N 37°33' E 025°07'1111.4
2016-Jun-23 04:33N 37°28' E 025°20'0 0.0
2016-Jun-23 03:33N 37°28' E 025°20'0 0.0
2016-Jun-23 02:33N 37°28' E 025°20'0 0.0
2016-Jun-23 01:33N 37°28' E 025°20'0 0.0
2016-Jun-23 00:33N 37°28' E 025°20'0 0.0
2016-Jun-22 23:33N 37°28' E 025°20'0 0.0
2016-Jun-22 22:33N 37°28' E 025°20'0 0.0
2016-Jun-22 21:33N 37°28' E 025°20'0 0.0
2016-Jun-22 20:33N 37°28' E 025°20'0 0.0
2016-Jun-22 19:33N 37°28' E 025°20'9 9.3
2016-Jun-22 18:33N 37°32' E 025°09'1818.3
2016-Jun-22 17:33N 37°44' E 024°52'3013.8
2016-Jun-22 15:24N 37°57' E 024°18'14 2.4
2016-Jun-22 09:33N 38°01' E 024°01'1918.9
2016-Jun-22 08:33N 37°55' E 024°23'4113.7
2016-Jun-22 05:33N 37°33' E 025°07'1111.2
2016-Jun-22 04:33N 37°28' E 025°20'0 0.0
2016-Jun-22 03:33N 37°28' E 025°20'0 0.0
2016-Jun-22 02:31N 37°28' E 025°20'0 0.0
2016-Jun-22 01:33N 37°28' E 025°20'0 0.0
2016-Jun-22 00:32N 37°28' E 025°20'0 0.0
2016-Jun-21 23:33N 37°28' E 025°20'0 0.0
2016-Jun-21 22:33N 37°28' E 025°20'0 0.0
2016-Jun-21 21:33N 37°28' E 025°20'0 0.0
2016-Jun-21 20:33N 37°28' E 025°20'0 0.0
2016-Jun-21 19:33N 37°28' E 025°20'9 9.3
2016-Jun-21 18:33N 37°32' E 025°09'1817.0
2016-Jun-21 17:29N 37°44' E 024°52'1110.7
2016-Jun-21 16:28N 37°52' E 024°42'2217.9
2016-Jun-21 15:13N 37°57' E 024°15'1217.5
2016-Jun-21 14:32N 38°01' E 024°01'0 0.0
2016-Jun-21 09:33N 38°01' E 024°01'2019.0
2016-Jun-21 08:32N 37°55' E 024°24'2713.0
2016-Jun-21 06:30N 37°43' E 024°54'2513.0
2016-Jun-21 04:33N 37°28' E 025°20'0 0.0
2016-Jun-21 03:33N 37°28' E 025°20'0 0.0
2016-Jun-21 02:33N 37°28' E 025°20'0 0.0
2016-Jun-21 01:33N 37°28' E 025°20'0 0.0
2016-Jun-21 00:33N 37°28' E 025°20'9 9.3
2016-Jun-20 23:33N 37°32' E 025°09'4317.7
2016-Jun-20 21:09N 37°52' E 024°22'1119.0
2016-Jun-20 20:33N 37°58' E 024°09'7 5.8
2016-Jun-20 19:15N 38°01' E 024°01'1115.7
2016-Jun-20 18:33N 37°58' E 024°14'5 1.4
2016-Jun-20 15:20N 37°57' E 024°19'14 7.7
2016-Jun-20 13:33N 38°01' E 024°03'1919.3
2016-Jun-20 12:33N 37°55' E 024°26'2713.6
2016-Jun-20 10:34N 37°41' E 024°55'1414.0
2016-Jun-20 09:34N 37°32' E 025°09'9 9.2
2016-Jun-20 08:33N 37°28' E 025°20'0 0.0
2016-Jun-20 07:33N 37°28' E 025°20'0 0.0
2016-Jun-20 06:33N 37°28' E 025°20'0 0.0
2016-Jun-20 05:33N 37°28' E 025°20'0 0.0
2016-Jun-20 04:33N 37°28' E 025°20'0 0.0
2016-Jun-20 03:33N 37°28' E 025°20'0 0.0
2016-Jun-20 02:33N 37°28' E 025°20'0 0.0
2016-Jun-20 01:33N 37°28' E 025°20'0 0.0
2016-Jun-20 00:33N 37°28' E 025°20'0 0.0
2016-Jun-19 23:33N 37°28' E 025°20'0 0.0
2016-Jun-19 22:33N 37°28' E 025°20'0 0.0
2016-Jun-19 21:33N 37°28' E 025°20'0 0.0
2016-Jun-19 20:33N 37°28' E 025°20'0 0.3
2016-Jun-19 19:33N 37°28' E 025°19'1313.1
2016-Jun-19 18:33N 37°34' E 025°05'4815.9
2016-Jun-19 15:33N 37°58' E 024°13'10 9.1
2016-Jun-19 14:28N 38°01' E 024°01'1617.5
2016-Jun-19 13:33N 37°57' E 024°20'2914.3
2016-Jun-19 11:31N 37°43' E 024°53'1717.8
2016-Jun-19 10:33N 37°32' E 025°09'9 9.3
2016-Jun-19 09:33N 37°28' E 025°20'  
Track history (hours):
 
Tides and Currents Weather Stations Pressure Air Temp Water Temp Dewpoint Dewpoint Depression Visibility Wind Speed Wind Dir Waves Ship Positions

Theologos P .

Last reported at 2016-Jun-29 09:14 UTC. Time now 2016-Jun-29 14:41 UTC.
Position N 38°01' E 024°01'.

Length 118 m; draft 4.5 m.

Type: Passenger vessel. MMSI: 240521000.

Date/timePositionNaut miles runAvg speedWind from/ knotsBaromVisibWave heightAir tempDewpointWater temp
2016-Jun-29 09:14N 38°01' E 024°01'1117.2
2016-Jun-29 08:34N 37°58' E 024°15'4816.1
2016-Jun-29 05:33N 37°33' E 025°07'1111.1
2016-Jun-29 04:33N 37°28' E 025°20'0 0.0
2016-Jun-29 03:34N 37°28' E 025°20'0 0.0
2016-Jun-29 02:33N 37°28' E 025°20'0 0.0
2016-Jun-29 01:33N 37°28' E 025°20'0 0.0
2016-Jun-29 00:33N 37°28' E 025°20'0 0.0
2016-Jun-28 23:33N 37°28' E 025°20'0 0.0
2016-Jun-28 22:34N 37°28' E 025°20'0 0.0
2016-Jun-28 21:33N 37°28' E 025°20'0 0.0
2016-Jun-28 20:34N 37°28' E 025°20'0 0.4
2016-Jun-28 19:33N 37°28' E 025°19'1111.2
2016-Jun-28 18:33N 37°33' E 025°07'3214.1
2016-Jun-28 16:19N 37°53' E 024°35'1417.9
2016-Jun-28 15:31N 37°57' E 024°18'14 2.3
2016-Jun-28 09:13N 38°01' E 024°01'1117.0
2016-Jun-28 08:33N 37°58' E 024°14'6014.7
2016-Jun-28 04:29N 37°28' E 025°20'0 0.0
2016-Jun-28 03:34N 37°28' E 025°20'0 0.0
2016-Jun-28 02:34N 37°28' E 025°20'0 0.0
2016-Jun-28 01:33N 37°28' E 025°20'0 0.0
2016-Jun-28 00:33N 37°28' E 025°20'0 0.0
2016-Jun-27 23:34N 37°28' E 025°20'0 0.0
2016-Jun-27 22:33N 37°28' E 025°20'0 0.0
2016-Jun-27 21:33N 37°28' E 025°20'0 0.0
2016-Jun-27 20:33N 37°28' E 025°20'0 0.0
2016-Jun-27 19:34N 37°28' E 025°20'9 9.2
2016-Jun-27 18:33N 37°32' E 025°09'1515.0
2016-Jun-27 17:33N 37°42' E 024°55'1412.5
2016-Jun-27 16:27N 37°52' E 024°44'1618.2
2016-Jun-27 15:33N 37°55' E 024°23'19 3.0
2016-Jun-27 09:18N 38°01' E 024°01'1317.8
2016-Jun-27 08:33N 37°57' E 024°17'3515.0
2016-Jun-27 06:15N 37°41' E 024°55'1318.9
2016-Jun-27 05:34N 37°32' E 025°08'1010.3
2016-Jun-27 04:33N 37°28' E 025°20'0 0.0
2016-Jun-27 03:33N 37°28' E 025°20'0 0.0
2016-Jun-27 02:33N 37°28' E 025°20'0 0.0
2016-Jun-27 01:33N 37°28' E 025°20'0 0.0
2016-Jun-27 00:33N 37°28' E 025°20'6 6.0
2016-Jun-26 23:33N 37°30' E 025°13'1414.1
2016-Jun-26 22:33N 37°37' E 024°57'3718.7
2016-Jun-26 20:33N 37°55' E 024°16'7 3.4
2016-Jun-26 18:33N 37°59' E 024°09'6 1.8
2016-Jun-26 15:12N 37°57' E 024°16'1218.9
2016-Jun-26 14:33N 38°01' E 024°01'2 1.6
2016-Jun-26 13:34N 38°01' E 024°03'4916.4
2016-Jun-26 10:33N 37°38' E 024°58'1111.1
2016-Jun-26 09:33N 37°32' E 025°09'9 8.9
2016-Jun-26 08:33N 37°28' E 025°20'0 0.0
2016-Jun-26 07:33N 37°28' E 025°20'0 0.0
2016-Jun-26 06:33N 37°28' E 025°20'0 0.0
2016-Jun-26 05:33N 37°28' E 025°20'0 0.0
2016-Jun-26 04:33N 37°28' E 025°20'0 0.0
2016-Jun-26 03:33N 37°28' E 025°20'0 0.0
2016-Jun-26 02:33N 37°28' E 025°20'0 0.0
2016-Jun-26 01:33N 37°28' E 025°20'0 0.0
2016-Jun-26 00:34N 37°28' E 025°20'0 0.0
2016-Jun-25 23:33N 37°28' E 025°20'0 0.0
2016-Jun-25 22:33N 37°28' E 025°20'0 0.0
2016-Jun-25 21:33N 37°28' E 025°20'0 0.0
2016-Jun-25 20:33N 37°28' E 025°20'0 0.0
2016-Jun-25 19:33N 37°28' E 025°20'9 9.3
2016-Jun-25 18:33N 37°32' E 025°09'1615.8
2016-Jun-25 17:31N 37°43' E 024°54'3214.6
2016-Jun-25 15:22N 37°57' E 024°18'12 6.8
2016-Jun-25 13:33N 38°01' E 024°03'2019.7
2016-Jun-25 12:33N 37°54' E 024°27'3015.1
2016-Jun-25 10:33N 37°38' E 024°59'1313.4
2016-Jun-25 09:33N 37°30' E 025°12'4 3.9
2016-Jun-25 08:33N 37°29' E 025°17'1313.3
2016-Jun-25 07:33N 37°36' E 025°03'4816.1
2016-Jun-25 04:33N 37°59' E 024°09'7 7.0
2016-Jun-25 03:32N 38°01' E 024°01'0 0.0
2016-Jun-25 02:33N 38°01' E 024°01'0 0.0
2016-Jun-25 01:33N 38°01' E 024°01'0 0.0
2016-Jun-25 00:33N 38°01' E 024°01'1514.8
2016-Jun-24 23:33N 37°55' E 024°17'1919.3
2016-Jun-24 22:33N 37°49' E 024°41'2020.0
2016-Jun-24 21:33N 37°36' E 024°60'1817.6
2016-Jun-24 20:33N 37°28' E 025°19'3 2.9
2016-Jun-24 19:34N 37°29' E 025°16'1010.2
2016-Jun-24 18:34N 37°34' E 025°05'1918.7
2016-Jun-24 17:32N 37°48' E 024°48'7 7.6
2016-Jun-24 16:33N 37°52' E 024°40'2018.1
2016-Jun-24 15:27N 37°57' E 024°16'13 2.1
2016-Jun-24 09:34N 38°01' E 024°01'1818.4
2016-Jun-24 08:33N 37°55' E 024°23'5313.2
2016-Jun-24 04:34N 37°28' E 025°20'0 0.0
2016-Jun-24 03:34N 37°28' E 025°20'0 0.0
2016-Jun-24 02:33N 37°28' E 025°20'0 0.0
2016-Jun-24 01:34N 37°28' E 025°20'0 0.0
2016-Jun-24 00:33N 37°28' E 025°20'0 0.0
2016-Jun-23 23:34N 37°28' E 025°20'0 0.0
2016-Jun-23 22:34N 37°28' E 025°20'0 0.0
2016-Jun-23 21:34N 37°28' E 025°20'0 0.0
2016-Jun-23 20:34N 37°28' E 025°20'0 0.0
2016-Jun-23 19:34N 37°28' E 025°20'9 9.2
2016-Jun-23 18:33N 37°32' E 025°09'1817.7
2016-Jun-23 17:33N 37°44' E 024°52'3113.9
2016-Jun-23 15:19N 37°57' E 024°17'13 2.2
2016-Jun-23 09:22N 38°01' E 024°01'1517.7
2016-Jun-23 08:32N 37°57' E 024°18'4515.1
2016-Jun-23 05:33N 37°33' E 025°07'1111.4
2016-Jun-23 04:33N 37°28' E 025°20'0 0.0
2016-Jun-23 03:33N 37°28' E 025°20'0 0.0
2016-Jun-23 02:33N 37°28' E 025°20'0 0.0
2016-Jun-23 01:33N 37°28' E 025°20'0 0.0
2016-Jun-23 00:33N 37°28' E 025°20'0 0.0
2016-Jun-22 23:33N 37°28' E 025°20'0 0.0
2016-Jun-22 22:33N 37°28' E 025°20'0 0.0
2016-Jun-22 21:33N 37°28' E 025°20'0 0.0
2016-Jun-22 20:33N 37°28' E 025°20'0 0.0
2016-Jun-22 19:33N 37°28' E 025°20'9 9.3
2016-Jun-22 18:33N 37°32' E 025°09'1818.3
2016-Jun-22 17:33N 37°44' E 024°52'3013.8
2016-Jun-22 15:24N 37°57' E 024°18'14 2.4
2016-Jun-22 09:33N 38°01' E 024°01'1918.9
2016-Jun-22 08:33N 37°55' E 024°23'4113.7
2016-Jun-22 05:33N 37°33' E 025°07'1111.2
2016-Jun-22 04:33N 37°28' E 025°20'0 0.0
2016-Jun-22 03:33N 37°28' E 025°20'0 0.0
2016-Jun-22 02:31N 37°28' E 025°20'0 0.0
2016-Jun-22 01:33N 37°28' E 025°20'0 0.0
2016-Jun-22 00:32N 37°28' E 025°20'0 0.0
2016-Jun-21 23:33N 37°28' E 025°20'0 0.0
2016-Jun-21 22:33N 37°28' E 025°20'0 0.0
2016-Jun-21 21:33N 37°28' E 025°20'0 0.0
2016-Jun-21 20:33N 37°28' E 025°20'0 0.0
2016-Jun-21 19:33N 37°28' E 025°20'9 9.3
2016-Jun-21 18:33N 37°32' E 025°09'1817.0
2016-Jun-21 17:29N 37°44' E 024°52'1110.7
2016-Jun-21 16:28N 37°52' E 024°42'2217.9
2016-Jun-21 15:13N 37°57' E 024°15'1217.5
2016-Jun-21 14:32N 38°01' E 024°01'0 0.0
2016-Jun-21 09:33N 38°01' E 024°01'2019.0
2016-Jun-21 08:32N 37°55' E 024°24'2713.0
2016-Jun-21 06:30N 37°43' E 024°54'2513.0
2016-Jun-21 04:33N 37°28' E 025°20'0 0.0
2016-Jun-21 03:33N 37°28' E 025°20'0 0.0
2016-Jun-21 02:33N 37°28' E 025°20'0 0.0
2016-Jun-21 01:33N 37°28' E 025°20'0 0.0
2016-Jun-21 00:33N 37°28' E 025°20'9 9.3
2016-Jun-20 23:33N 37°32' E 025°09'4317.7
2016-Jun-20 21:09N 37°52' E 024°22'1119.0
2016-Jun-20 20:33N 37°58' E 024°09'7 5.8
2016-Jun-20 19:15N 38°01' E 024°01'1115.7
2016-Jun-20 18:33N 37°58' E 024°14'5 1.4
2016-Jun-20 15:20N 37°57' E 024°19'14 7.7
2016-Jun-20 13:33N 38°01' E 024°03'1919.3
2016-Jun-20 12:33N 37°55' E 024°26'2713.6
2016-Jun-20 10:34N 37°41' E 024°55'1414.0
2016-Jun-20 09:34N 37°32' E 025°09'9 9.2
2016-Jun-20 08:33N 37°28' E 025°20'0 0.0
2016-Jun-20 07:33N 37°28' E 025°20'0 0.0
2016-Jun-20 06:33N 37°28' E 025°20'0 0.0
2016-Jun-20 05:33N 37°28' E 025°20'0 0.0
2016-Jun-20 04:33N 37°28' E 025°20'0 0.0
2016-Jun-20 03:33N 37°28' E 025°20'0 0.0
2016-Jun-20 02:33N 37°28' E 025°20'0 0.0
2016-Jun-20 01:33N 37°28' E 025°20'0 0.0
2016-Jun-20 00:33N 37°28' E 025°20'0 0.0
2016-Jun-19 23:33N 37°28' E 025°20'0 0.0
2016-Jun-19 22:33N 37°28' E 025°20'0 0.0
2016-Jun-19 21:33N 37°28' E 025°20'0 0.0
2016-Jun-19 20:33N 37°28' E 025°20'0 0.3
2016-Jun-19 19:33N 37°28' E 025°19'1313.1
2016-Jun-19 18:33N 37°34' E 025°05'4815.9
2016-Jun-19 15:33N 37°58' E 024°13'10 9.1
2016-Jun-19 14:28N 38°01' E 024°01'1617.5
2016-Jun-19 13:33N 37°57' E 024°20'2914.3
2016-Jun-19 11:31N 37°43' E 024°53'1717.8
2016-Jun-19 10:33N 37°32' E 025°09'9 9.3
2016-Jun-19 09:33N 37°28' E 025°20'  

Dump ship's entire track history